Etusivu
METAR-TAF:

METAR-TAF

Lentoasemat :

Calvi, Ranska

Leveyspiiri: 42-32N, Pituuspiiri: 008-48E, korkeus merenpinnasta: 64 m

Tämänhetkinen sää

Tämä raportti tehtiin 39 minuuttia sitten, kello 04.00 UTC
Tuuli 6 kn etelästä
Lämpötila 5°C
Kosteus 70%
Ilmanpaine 1022 hPa
Näkyvyys 10 km tai enemmän
ei pilviä alle 1500 m:ssä eikä cumulonimbus-pilviä

METAR: LFKC 190400Z AUTO 19006KT CAVOK 05/00 Q1022 NOSIG

Aika: 05:39 (04:39 UTC)

Sääennuste

Tämä raportti tehtiin 2 tuntia ja 39 minuuttia sitten, kello 02.00 UTC
Ennuste voimassa 19. päivästä klo 03 UTC - 20. päivään klo 03 UTC
Tuuli 4 kn etelästä
Näkyvyys 10 km tai enemmän
ei pilviä alle 1500 m:ssä eikä cumulonimbus-pilviä
Tulossa
19. päivästä klo 08 UTC - 19. päivään klo 11 UTC
Tuuli 12 kn koillisesta
Tulossa
19. päivästä klo 19 UTC - 19. päivään klo 22 UTC
Tuuli 15 kn koillisesta puuskistuen 35 kn:hen

TAF: LFKC 190200Z 1903/2003 18004KT CAVOK TX13/1913Z TN03/1903Z BECMG 1908/1911 04012KT BECMG 1919/1922 04015G35KT

Säähavainnot ja -ennusteet yli 4000 lentoasemalta (METAR- ja TAF-raportit).

Käytössä olevat sääasemat on merkitty karttaan keltaisilla ja punaisilla pisteillä.

Aseta hiiri pisteen päälle nähdäksesi sääaseman nimen.

Klikkaa sitten nähdäksesi säähavainnot ja -ennusteet.

Kartan vaihtaminen: klikkaa mustalla rastilla varustettuja vihreitä pisteitä, niin voit zoomata sisään; viivalla varustettua vihreää pistettä, niin voit zoomata ulos tai vihreitä nuolia, niin pääset viereisille kartoille.


METAR-TAF: